Time;durP1;ratioP1;P1;durP2;ratioP2;P2;SDS_P1;SDS_P2;PMS_P1;PMS_P2;Temp;Humidity;BMP_temperature;BMP_pressure;BME280_temperature;BME280_humidity;BME280_pressure;Samples;Min_cycle;Max_cycle;Signal;HPM_P1;HPM_P2
2023/11/23 00:00:53;;;;;;;;;;;;;;;0.87;100.00;97580.09;5106393;28;20278;-77
2023/11/23 00:03:19;;;;;;;;;;;;;;;0.93;100.00;97573.59;5105600;28;19941;-76
2023/11/23 00:05:46;;;;;;;;;;;;;;;0.93;100.00;97569.25;5122115;28;19949;-77
2023/11/23 00:08:12;;;;;;;;;;;;;;;0.95;100.00;97557.00;5105176;28;19933;-77
2023/11/23 00:10:37;;;;;;;;;;;;;;;0.92;100.00;97546.94;5121373;28;19976;-77
2023/11/23 00:13:03;;;;;;;;;;;;;;;0.88;100.00;97557.66;5105351;28;19992;-77
2023/11/23 00:15:29;;;;;;;;;;;;;;;0.85;100.00;97568.25;5121168;28;19959;-77
2023/11/23 00:17:55;;;;;;;;;;;;;;;0.83;100.00;97567.56;5105257;28;20212;-77
2023/11/23 00:20:21;;;;;;;;;;;;;;;0.84;100.00;97558.84;5105281;28;19939;-77
2023/11/23 00:22:47;;;;;;;;;;;;;;;0.88;100.00;97567.97;5105772;28;19954;-73
2023/11/23 00:25:14;;;;;;;;;;;;;;;0.88;100.00;97570.56;5120908;28;19944;-74
2023/11/23 00:27:40;;;;;;;;;;;;;;;0.92;100.00;97571.94;5104211;28;19937;-74
2023/11/23 00:30:06;;;;;;;;;;;;;;;0.91;100.00;97563.38;5105830;28;19948;-74
2023/11/23 00:32:33;;;;;;;;;;;;;;;0.88;100.00;97570.56;5104976;28;19940;-73
2023/11/23 00:34:59;;;;;;;;;;;;;;;0.87;100.00;97568.94;5105679;28;19938;-74
2023/11/23 00:37:25;;;;;;;;;;;;;;;0.88;100.00;97557.66;5104748;28;19971;-74
2023/11/23 00:39:50;;;;;;;;;;;;;;;0.85;100.00;97552.75;5105090;28;19945;-71
2023/11/23 00:42:16;;;;;;;;;;;;;;;0.78;100.00;97552.47;5121446;28;19939;-71
2023/11/23 00:44:42;;;;;;;;;;;;;;;0.76;100.00;97555.16;5104874;28;19996;-71
2023/11/23 00:47:08;;;;;;;;;;;;;;;0.68;100.00;97552.41;5105139;28;19940;-72
2023/11/23 00:49:35;;;;;;;;;;;;;;;0.67;100.00;97555.09;5104628;28;20007;-72
2023/11/23 00:52:01;;;;;;;;;;;;;;;0.67;100.00;97555.91;5087084;28;19938;-72
2023/11/23 00:54:27;;;;;;;;;;;;;;;0.70;100.00;97560.03;5104556;28;19943;-72
2023/11/23 00:56:53;;;;;;;;;;;;;;;0.70;100.00;97541.97;5103424;28;19984;-71
2023/11/23 00:59:19;;;;;;;;;;;;;;;0.72;100.00;97555.56;5120361;28;19944;-77
2023/11/23 01:01:45;;;;;;;;;;;;;;;0.74;100.00;97541.56;5104511;28;19936;-72
2023/11/23 01:04:11;;;;;;;;;;;;;;;0.77;100.00;97551.63;5103624;28;19990;-72
2023/11/23 01:06:37;;;;;;;;;;;;;;;0.79;100.00;97552.31;5104132;28;19933;-71
2023/11/23 01:09:03;;;;;;;;;;;;;;;0.79;100.00;97557.47;5103492;28;19933;-71
2023/11/23 01:11:29;;;;;;;;;;;;;;;0.81;100.00;97553.00;5120156;28;19989;-72
2023/11/23 01:13:55;;;;;;;;;;;;;;;0.85;100.00;97561.31;5119197;28;19948;-72
2023/11/23 01:16:20;;;;;;;;;;;;;;;0.89;100.00;97564.47;5103692;28;20027;-71
2023/11/23 01:18:46;;;;;;;;;;;;;;;0.90;100.00;97553.16;5120126;28;19941;-74
2023/11/23 01:21:12;;;;;;;;;;;;;;;0.91;100.00;97557.41;5119947;28;20131;-74
2023/11/23 01:23:38;;;;;;;;;;;;;;;0.91;100.00;97558.22;5105014;28;19934;-73
2023/11/23 01:26:04;;;;;;;;;;;;;;;0.92;100.00;97554.66;5104700;28;19943;-74
2023/11/23 01:28:30;;;;;;;;;;;;;;;0.92;100.00;97548.69;5104158;28;19943;-74
2023/11/23 01:30:55;;;;;;;;;;;;;;;0.91;100.00;97552.25;5104654;28;19934;-74
2023/11/23 01:33:22;;;;;;;;;;;;;;;0.85;100.00;97551.00;5120817;28;20010;-76
2023/11/23 01:35:48;;;;;;;;;;;;;;;0.80;100.00;97551.38;5104701;28;20115;-71
2023/11/23 01:38:14;;;;;;;;;;;;;;;0.82;100.00;97559.00;5104009;28;20166;-72
2023/11/23 01:40:40;;;;;;;;;;;;;;;0.80;100.00;97561.72;5086030;28;19948;-72
2023/11/23 01:43:08;;;;;;;;;;;;;;;0.77;100.00;97554.19;5104037;28;19938;-72
2023/11/23 01:45:33;;;;;;;;;;;;;;;0.74;100.00;97556.25;5104764;28;19957;-73
2023/11/23 01:47:59;;;;;;;;;;;;;;;0.73;100.00;97550.25;5104803;28;20191;-72
2023/11/23 01:50:25;;;;;;;;;;;;;;;0.76;100.00;97555.16;5104811;28;19952;-72
2023/11/23 01:52:51;;;;;;;;;;;;;;;0.80;100.00;97542.81;5104481;28;19938;-72
2023/11/23 01:55:18;;;;;;;;;;;;;;;0.84;100.00;97538.19;5104662;28;19935;-73
2023/11/23 01:57:47;;;;;;;;;;;;;;;0.84;100.00;97533.03;5120546;28;19942;-73
2023/11/23 02:00:13;;;;;;;;;;;;;;;0.87;100.00;97545.69;5103516;28;19949;-73
2023/11/23 02:02:41;;;;;;;;;;;;;;;0.90;100.00;97542.84;5105242;28;19948;-73
2023/11/23 02:05:07;;;;;;;;;;;;;;;0.90;100.00;97530.75;5123708;28;20132;-73
2023/11/23 02:07:33;;;;;;;;;;;;;;;0.94;100.00;97528.72;5108397;28;19938;-73
2023/11/23 02:09:59;;;;;;;;;;;;;;;0.95;100.00;97518.28;5107960;28;19941;-72
2023/11/23 02:12:26;;;;;;;;;;;;;;;0.97;100.00;97507.81;5122638;28;19951;-72
2023/11/23 02:14:53;;;;;;;;;;;;;;;0.90;100.00;97494.59;5124359;28;19946;-71
2023/11/23 02:17:19;;;;;;;;;;;;;;;0.85;100.00;97498.53;5123467;28;19958;-71
2023/11/23 02:19:45;;;;;;;;;;;;;;;0.79;100.00;97503.25;5089474;28;19953;-70
2023/11/23 02:22:13;;;;;;;;;;;;;;;0.78;100.00;97503.41;5108360;28;19957;-70
2023/11/23 02:24:39;;;;;;;;;;;;;;;0.76;100.00;97498.34;5107455;28;19934;-70
2023/11/23 02:27:06;;;;;;;;;;;;;;;0.75;100.00;97503.66;5107455;28;19939;-71
2023/11/23 02:29:32;;;;;;;;;;;;;;;0.72;100.00;97496.97;5105930;28;20106;-77
2023/11/23 02:31:58;;;;;;;;;;;;;;;0.71;100.00;97495.34;5107910;28;19972;-78
2023/11/23 02:34:24;;;;;;;;;;;;;;;0.65;100.00;97502.78;5107346;28;19963;-78
2023/11/23 02:36:50;;;;;;;;;;;;;;;0.63;100.00;97500.34;5107207;28;20254;-78
2023/11/23 02:39:16;;;;;;;;;;;;;;;0.62;100.00;97497.88;5107091;28;20181;-78
2023/11/23 02:41:42;;;;;;;;;;;;;;;0.62;100.00;97493.53;5107744;28;19945;-77
2023/11/23 02:44:08;;;;;;;;;;;;;;;0.63;100.00;97502.09;5107038;28;20171;-78
2023/11/23 02:46:34;;;;;;;;;;;;;;;0.64;100.00;97499.38;5107902;28;19949;-77
2023/11/23 02:48:59;;;;;;;;;;;;;;;0.65;100.00;97506.22;5107098;28;19938;-76
2023/11/23 02:51:25;;;;;;;;;;;;;;;0.67;100.00;97506.06;5106978;28;19939;-72
2023/11/23 02:53:51;;;;;;;;;;;;;;;0.67;100.00;97496.53;5123634;28;19941;-73
2023/11/23 02:56:17;;;;;;;;;;;;;;;0.66;100.00;97507.81;5106746;28;20013;-72
2023/11/23 02:58:43;;;;;;;;;;;;;;;0.66;100.00;97512.19;5107371;28;19937;-72
2023/11/23 03:01:09;;;;;;;;;;;;;;;0.63;100.00;97505.50;5122733;28;19941;-72
2023/11/23 03:03:34;;;;;;;;;;;;;;;0.62;100.00;97505.63;5106790;28;19946;-72
2023/11/23 03:06:00;;;;;;;;;;;;;;;0.59;100.00;97501.56;5106761;28;20194;-74
2023/11/23 03:08:27;;;;;;;;;;;;;;;0.53;100.00;97491.75;5123404;28;19943;-77
2023/11/23 03:10:56;;;;;;;;;;;;;;;0.49;100.00;97498.91;5106582;28;20124;-78
2023/11/23 03:13:22;;;;;;;;;;;;;;;0.47;100.00;97500.00;5106444;28;19939;-78
2023/11/23 03:15:50;;;;;;;;;;;;;;;0.44;100.00;97507.97;5107047;28;19960;-78
2023/11/23 03:18:16;;;;;;;;;;;;;;;0.43;100.00;97496.03;5106993;28;19943;-78
2023/11/23 03:20:42;;;;;;;;;;;;;;;0.42;100.00;97502.97;5107262;28;19939;-80
2023/11/23 03:23:08;;;;;;;;;;;;;;;0.43;100.00;97499.44;5122329;28;20242;-78
2023/11/23 03:25:34;;;;;;;;;;;;;;;0.43;100.00;97499.44;5122179;28;19943;-76
2023/11/23 03:28:01;;;;;;;;;;;;;;;0.43;100.00;97507.16;5122960;28;19941;-73
2023/11/23 03:30:27;;;;;;;;;;;;;;;0.43;100.00;97509.75;5088987;28;19944;-73
2023/11/23 03:32:53;;;;;;;;;;;;;;;0.42;100.00;97515.03;5088082;28;19941;-73
2023/11/23 03:35:19;;;;;;;;;;;;;;;0.40;100.00;97512.59;5105061;28;19972;-73
2023/11/23 03:37:44;;;;;;;;;;;;;;;0.37;100.00;97503.31;5122237;28;19967;-74
2023/11/23 03:40:10;;;;;;;;;;;;;;;0.36;100.00;97501.72;5121870;28;19941;-73
2023/11/23 03:42:36;;;;;;;;;;;;;;;0.32;100.00;97505.50;5121889;28;19941;-73
2023/11/23 03:45:03;;;;;;;;;;;;;;;0.31;100.00;97500.44;5105820;28;20148;-72
2023/11/23 03:47:29;;;;;;;;;;;;;;;0.31;100.00;97506.41;5106279;28;19965;-71
2023/11/23 03:49:55;;;;;;;;;;;;;;;0.33;100.00;97506.28;5106617;28;20210;-70
2023/11/23 03:52:21;;;;;;;;;;;;;;;0.32;100.00;97504.69;5106358;28;19971;-70
2023/11/23 03:54:46;;;;;;;;;;;;;;;0.31;100.00;97503.03;5121610;28;19942;-70
2023/11/23 03:57:13;;;;;;;;;;;;;;;0.27;100.00;97509.38;5121423;28;19963;-70
2023/11/23 03:59:38;;;;;;;;;;;;;;;0.24;100.00;97504.50;5106188;28;19943;-70
2023/11/23 04:02:04;;;;;;;;;;;;;;;0.24;100.00;97505.28;5105597;28;20132;-72
2023/11/23 04:04:31;;;;;;;;;;;;;;;0.24;100.00;97504.50;5122275;28;20012;-73
2023/11/23 04:06:58;;;;;;;;;;;;;;;0.23;100.00;97500.25;5105409;28;19933;-73
2023/11/23 04:09:24;;;;;;;;;;;;;;;0.21;100.00;97492.66;5122174;28;20104;-73
2023/11/23 04:11:50;;;;;;;;;;;;;;;0.16;100.00;97495.59;5105448;28;19947;-73
2023/11/23 04:14:16;;;;;;;;;;;;;;;0.11;100.00;97487.44;5105356;28;19934;-73
2023/11/23 04:16:42;;;;;;;;;;;;;;;0.07;100.00;97483.47;5106063;28;19961;-73
2023/11/23 04:19:07;;;;;;;;;;;;;;;0.05;100.00;97487.13;5106060;28;19947;-70
2023/11/23 04:21:33;;;;;;;;;;;;;;;0.06;100.00;97481.81;5121015;28;19944;-70
2023/11/23 04:23:59;;;;;;;;;;;;;;;0.06;100.00;97481.81;5121025;28;20022;-73
2023/11/23 04:26:25;;;;;;;;;;;;;;;0.07;100.00;97483.47;5086481;28;19949;-72
2023/11/23 04:28:51;;;;;;;;;;;;;;;0.06;100.00;97492.13;5121642;28;19937;-72
2023/11/23 04:31:17;;;;;;;;;;;;;;;0.07;100.00;97474.94;5104243;28;19938;-73
2023/11/23 04:33:43;;;;;;;;;;;;;;;0.06;100.00;97478.44;5105551;28;19939;-72
2023/11/23 04:36:11;;;;;;;;;;;;;;;0.05;100.00;97481.97;5086865;28;20049;-72
2023/11/23 04:38:36;;;;;;;;;;;;;;;0.04;100.00;97488.88;5103641;28;20044;-70
2023/11/23 04:41:03;;;;;;;;;;;;;;;0.06;100.00;97494.72;5104262;28;19939;-71
2023/11/23 04:43:29;;;;;;;;;;;;;;;0.07;100.00;97506.69;5120660;28;20160;-72
2023/11/23 04:45:55;;;;;;;;;;;;;;;0.08;100.00;97513.47;5105228;28;20012;-72
2023/11/23 04:48:21;;;;;;;;;;;;;;;0.10;100.00;97515.94;5104752;28;20003;-72
2023/11/23 04:50:47;;;;;;;;;;;;;;;0.11;100.00;97512.41;5105520;28;20101;-72
2023/11/23 04:53:13;;;;;;;;;;;;;;;0.10;100.00;97509.00;5104706;28;20004;-72
2023/11/23 04:55:38;;;;;;;;;;;;;;;0.11;100.00;97505.50;5105472;28;19942;-70
2023/11/23 04:58:04;;;;;;;;;;;;;;;0.11;100.00;97504.69;5104534;28;19954;-72
2023/11/23 05:00:30;;;;;;;;;;;;;;;0.11;100.00;97497.75;5105111;28;19938;-71
2023/11/23 05:02:57;;;;;;;;;;;;;;;0.11;100.00;97494.38;5105353;28;19935;-73
2023/11/23 05:05:22;;;;;;;;;;;;;;;0.10;100.00;97488.38;5104551;28;19941;-72
2023/11/23 05:07:48;;;;;;;;;;;;;;;0.08;100.00;97482.50;5120990;28;19944;-73
2023/11/23 05:10:16;;;;;;;;;;;;;;;0.06;100.00;97484.41;5121101;28;19938;-73
2023/11/23 05:12:41;;;;;;;;;;;;;;;0.04;100.00;97482.91;5120313;28;19933;-72
2023/11/23 05:15:07;;;;;;;;;;;;;;;-0.01;100.00;97481.50;5120943;28;20157;-73
2023/11/23 05:17:33;;;;;;;;;;;;;;;-0.03;100.00;97485.97;5104313;28;19950;-71
2023/11/23 05:19:59;;;;;;;;;;;;;;;-0.05;100.00;97479.31;5102804;28;19971;-72
2023/11/23 05:22:25;;;;;;;;;;;;;;;-0.10;100.00;97487.44;5120107;28;19964;-72
2023/11/23 05:24:51;;;;;;;;;;;;;;;-0.13;100.00;97479.94;5120110;28;19940;-72
2023/11/23 05:27:17;;;;;;;;;;;;;;;-0.13;100.00;97485.09;5120890;28;19937;-72
2023/11/23 05:29:43;;;;;;;;;;;;;;;-0.14;100.00;97485.25;5104162;28;19947;-71
2023/11/23 05:32:09;;;;;;;;;;;;;;;-0.15;100.00;97488.75;5103815;28;19947;-71
2023/11/23 05:34:34;;;;;;;;;;;;;;;-0.18;100.00;97491.59;5104958;28;19942;-71
2023/11/23 05:37:00;;;;;;;;;;;;;;;-0.20;100.00;97481.38;5103551;28;19955;-71
2023/11/23 05:39:27;;;;;;;;;;;;;;;-0.21;100.00;97484.91;5124052;28;19940;-70
2023/11/23 05:41:53;;;;;;;;;;;;;;;-0.22;100.00;97484.09;5108822;28;20033;-71
2023/11/23 05:44:19;;;;;;;;;;;;;;;-0.22;100.00;97488.44;5090905;28;19950;-70
2023/11/23 05:46:47;;;;;;;;;;;;;;;-0.24;100.00;97488.53;5107175;28;19942;-70
2023/11/23 05:49:13;;;;;;;;;;;;;;;-0.27;100.00;97480.25;5108382;28;19942;-70
2023/11/23 05:51:39;;;;;;;;;;;;;;;-0.28;100.00;97482.00;5124801;28;19979;-73
2023/11/23 05:54:05;;;;;;;;;;;;;;;-0.29;100.00;97485.53;5108128;28;19937;-72
2023/11/23 05:56:31;;;;;;;;;;;;;;;-0.31;100.00;97487.41;5123837;28;20244;-70
2023/11/23 05:58:57;;;;;;;;;;;;;;;-0.32;100.00;97503.00;5107928;28;19974;-70
2023/11/23 06:01:22;;;;;;;;;;;;;;;-0.33;100.00;97498.81;5124532;28;19940;-70
2023/11/23 06:03:49;;;;;;;;;;;;;;;-0.34;100.00;97495.38;5108232;28;19988;-70
2023/11/23 06:06:19;;;;;;;;;;;;;;;-0.34;100.00;97497.16;5106225;28;19959;-70
2023/11/23 06:08:46;;;;;;;;;;;;;;;-0.35;100.00;97501.50;5106881;28;19934;-70
2023/11/23 06:11:11;;;;;;;;;;;;;;;-0.36;100.00;97499.84;5106526;28;19938;-77
2023/11/23 06:13:37;;;;;;;;;;;;;;;-0.36;100.00;97504.19;5106863;28;19935;-70
2023/11/23 06:16:04;;;;;;;;;;;;;;;-0.37;100.00;97511.09;5105880;28;19940;-70
2023/11/23 06:18:30;;;;;;;;;;;;;;;-0.35;100.00;97511.00;5106498;28;20203;-70
2023/11/23 06:20:55;;;;;;;;;;;;;;;-0.37;100.00;97515.44;5105447;28;19947;-71
2023/11/23 06:23:22;;;;;;;;;;;;;;;-0.37;100.00;97515.44;5105815;28;19937;-70
2023/11/23 06:25:48;;;;;;;;;;;;;;;-0.41;100.00;97507.94;5105900;28;19941;-71
2023/11/23 06:28:15;;;;;;;;;;;;;;;-0.41;100.00;97514.88;5105782;28;19939;-72
2023/11/23 06:30:41;;;;;;;;;;;;;;;-0.42;100.00;97526.09;5088641;28;19940;-72
2023/11/23 06:33:06;;;;;;;;;;;;;;;-0.40;100.00;97521.63;5105756;28;19945;-71
2023/11/23 06:35:32;;;;;;;;;;;;;;;-0.43;100.00;97521.91;5088597;28;19935;-70
2023/11/23 06:37:58;;;;;;;;;;;;;;;-0.44;100.00;97533.16;5084917;28;19993;-70
2023/11/23 06:40:24;;;;;;;;;;;;;;;-0.47;100.00;97535.97;5123165;28;19941;-70
2023/11/23 06:42:51;;;;;;;;;;;;;;;-0.46;100.00;97538.44;5107180;28;20274;-70
2023/11/23 06:45:17;;;;;;;;;;;;;;;-0.46;100.00;97538.44;5122953;28;19950;-70
2023/11/23 06:47:43;;;;;;;;;;;;;;;-0.46;100.00;97538.44;5107255;28;20126;-79
2023/11/23 06:50:09;;;;;;;;;;;;;;;-0.43;100.00;97539.94;5105422;28;19942;-73
2023/11/23 06:52:35;;;;;;;;;;;;;;;-0.41;100.00;97541.44;5106997;28;19936;-72
2023/11/23 06:55:01;;;;;;;;;;;;;;;-0.37;100.00;97548.97;5106877;28;19931;-72
2023/11/23 06:57:27;;;;;;;;;;;;;;;-0.34;100.00;97546.13;5123572;28;19958;-72
2023/11/23 06:59:53;;;;;;;;;;;;;;;-0.31;100.00;97546.69;5122695;28;19946;-72
2023/11/23 07:02:19;;;;;;;;;;;;;;;-0.30;100.00;97538.00;5106844;28;19937;-71
2023/11/23 07:04:45;;;;;;;;;;;;;;;-0.24;100.00;97532.38;5123340;28;20211;-71
2023/11/23 07:07:11;;;;;;;;;;;;;;;-0.21;100.00;97537.28;5122619;28;19942;-72
2023/11/23 07:09:36;;;;;;;;;;;;;;;-0.19;100.00;97539.72;5107239;28;19939;-72
2023/11/23 07:12:02;;;;;;;;;;;;;;;-0.16;100.00;97536.91;5106559;28;19972;-72
2023/11/23 07:14:28;;;;;;;;;;;;;;;-0.12;100.00;97529.75;5106824;28;19945;-72
2023/11/23 07:16:56;;;;;;;;;;;;;;;-0.10;100.00;97520.97;5106424;28;20176;-73
2023/11/23 07:19:22;;;;;;;;;;;;;;;-0.09;100.00;97522.56;5106493;28;19935;-72
2023/11/23 07:21:48;;;;;;;;;;;;;;;-0.11;100.00;97519.31;5106415;28;19932;-72
2023/11/23 07:24:15;;;;;;;;;;;;;;;-0.12;100.00;97519.44;5106928;28;19939;-79
2023/11/23 07:26:41;;;;;;;;;;;;;;;-0.06;100.00;97527.50;5106625;28;19937;-78
2023/11/23 07:29:07;;;;;;;;;;;;;;;0.05;100.00;97525.81;5106319;28;19927;-79
2023/11/23 07:31:33;;;;;;;;;;;;;;;0.17;100.00;97535.13;5106775;28;19933;-79
2023/11/23 07:33:59;;;;;;;;;;;;;;;0.28;100.00;97535.06;5088030;28;19934;-79
2023/11/23 07:36:26;;;;;;;;;;;;;;;0.42;100.00;97546.00;5106054;28;19934;-79
2023/11/23 07:38:52;;;;;;;;;;;;;;;0.56;100.00;97543.09;5105883;28;19969;-79
2023/11/23 07:41:18;;;;;;;;;;;;;;;0.69;100.00;97548.84;5121849;28;20019;-70
2023/11/23 07:43:46;;;;;;;;;;;;;;;0.85;100.00;97532.91;5122110;28;19956;-73
2023/11/23 07:46:12;;;;;;;;;;;;;;;0.87;100.00;97536.19;5106112;28;19941;-72
2023/11/23 07:48:38;;;;;;;;;;;;;;;0.82;100.00;97543.50;5121883;28;19980;-72
2023/11/23 07:51:04;;;;;;;;;;;;;;;0.78;100.00;97549.88;5105850;28;19933;-71
2023/11/23 07:53:30;;;;;;;;;;;;;;;0.84;100.00;97548.53;5104804;28;19941;-72
2023/11/23 07:55:56;;;;;;;;;;;;;;;1.01;100.00;97553.91;5121583;28;19947;-73
2023/11/23 07:58:23;;;;;;;;;;;;;;;0.99;100.00;97555.81;5121489;28;20156;-71
2023/11/23 08:00:49;;;;;;;;;;;;;;;0.93;100.00;97552.94;5120749;28;19937;-73
2023/11/23 08:03:15;;;;;;;;;;;;;;;0.88;100.00;97545.56;5105617;28;19938;-70
2023/11/23 08:05:42;;;;;;;;;;;;;;;0.74;100.00;97545.91;5121267;28;20324;-70
2023/11/23 08:08:10;;;;;;;;;;;;;;;0.68;100.00;97549.00;5121867;28;20108;-70
2023/11/23 08:10:35;;;;;;;;;;;;;;;0.68;100.00;97543.84;5106254;28;19947;-70
2023/11/23 08:13:01;;;;;;;;;;;;;;;0.71;100.00;97531.47;5106178;28;20098;-70
2023/11/23 08:15:28;;;;;;;;;;;;;;;0.74;100.00;97533.00;5105415;28;19974;-70
2023/11/23 08:17:54;;;;;;;;;;;;;;;0.85;100.00;97532.09;5105254;28;19962;-70
2023/11/23 08:20:23;;;;;;;;;;;;;;;1.13;100.00;97533.13;5105270;28;19938;-70
2023/11/23 08:22:49;;;;;;;;;;;;;;;1.32;100.00;97528.00;5106020;28;20213;-74
2023/11/23 08:25:15;;;;;;;;;;;;;;;1.57;100.00;97531.06;5105200;28;19944;-73
2023/11/23 08:27:41;;;;;;;;;;;;;;;1.58;100.00;97523.16;5105642;28;19936;-74
2023/11/23 08:30:07;;;;;;;;;;;;;;;1.63;100.00;97538.28;5105112;28;19942;-74
2023/11/23 08:32:33;;;;;;;;;;;;;;;1.70;100.00;97539.38;5121705;28;19947;-74
2023/11/23 08:35:01;;;;;;;;;;;;;;;1.76;100.00;97541.41;5104979;28;19937;-75
2023/11/23 08:37:27;;;;;;;;;;;;;;;1.87;100.00;97550.84;5119751;28;19973;-70
2023/11/23 08:39:55;;;;;;;;;;;;;;;1.99;100.00;97541.16;5104290;28;19952;-70
2023/11/23 08:42:21;;;;;;;;;;;;;;;2.02;100.00;97533.94;5104074;28;20026;-70
2023/11/23 08:44:47;;;;;;;;;;;;;;;2.06;100.00;97539.66;5120632;28;19971;-70
2023/11/23 08:47:13;;;;;;;;;;;;;;;2.02;100.00;97526.19;5104738;28;19983;-70
2023/11/23 08:49:41;;;;;;;;;;;;;;;2.02;100.00;97538.31;5103709;28;19944;-70
2023/11/23 08:52:07;;;;;;;;;;;;;;;1.91;100.00;97528.06;5104385;28;20110;-70
2023/11/23 08:54:34;;;;;;;;;;;;;;;1.79;100.00;97527.41;5120438;28;19948;-70
2023/11/23 08:57:01;;;;;;;;;;;;;;;1.69;100.00;97537.75;5121169;28;19960;-71
2023/11/23 08:59:27;;;;;;;;;;;;;;;1.66;100.00;97529.44;5120445;28;19945;-72
2023/11/23 09:01:53;;;;;;;;;;;;;;;1.61;100.00;97535.81;5105337;28;19959;-73
2023/11/23 09:04:18;;;;;;;;;;;;;;;1.61;100.00;97530.66;5104502;28;19933;-72
2023/11/23 09:06:44;;;;;;;;;;;;;;;1.62;100.00;97521.94;5105276;28;19936;-73
2023/11/23 09:09:12;;;;;;;;;;;;;;;1.62;100.00;97516.78;5104330;28;19934;-74
2023/11/23 09:11:38;;;;;;;;;;;;;;;1.67;100.00;97507.81;5104260;28;20116;-73
2023/11/23 09:14:04;;;;;;;;;;;;;;;1.73;100.00;97509.84;5104272;28;19934;-76
2023/11/23 09:16:30;;;;;;;;;;;;;;;1.74;100.00;97512.31;5120931;28;19938;-78
2023/11/23 09:18:56;;;;;;;;;;;;;;;1.77;100.00;97506.84;5104097;28;20246;-70
2023/11/23 09:21:22;;;;;;;;;;;;;;;1.84;100.00;97512.28;5120738;28;20005;-70
2023/11/23 09:23:48;;;;;;;;;;;;;;;1.92;100.00;97504.66;5104218;28;19938;-70
2023/11/23 09:26:13;;;;;;;;;;;;;;;1.99;100.00;97499.75;5120011;28;20001;-70
2023/11/23 09:28:41;;;;;;;;;;;;;;;2.00;100.00;97488.47;5120302;28;19937;-70
2023/11/23 09:31:08;;;;;;;;;;;;;;;2.06;100.00;97484.50;5119892;28;19951;-70
2023/11/23 09:33:34;;;;;;;;;;;;;;;2.12;100.00;97483.94;5104700;28;19934;-77
2023/11/23 09:36:02;;;;;;;;;;;;;;;2.20;100.00;97481.47;5104015;28;19938;-72
2023/11/23 09:38:28;;;;;;;;;;;;;;;2.29;100.00;97472.88;5119908;28;19978;-72
2023/11/23 09:40:58;;;;;;;;;;;;;;;2.40;100.00;97472.72;5104630;28;20334;-72
2023/11/23 09:43:24;;;;;;;;;;;;;;;2.51;100.00;97478.69;5120819;28;19938;-72
2023/11/23 09:45:50;;;;;;;;;;;;;;;2.53;100.00;97469.81;5086392;28;19989;-73
2023/11/23 09:48:16;;;;;;;;;;;;;;;2.56;100.00;97468.69;5120304;28;19959;-72
2023/11/23 09:50:43;;;;;;;;;;;;;;;2.63;100.00;97468.00;5102723;28;20283;-70
2023/11/23 09:53:11;;;;;;;;;;;;;;;2.69;100.00;97469.22;5119850;28;19938;-73
2023/11/23 09:55:37;;;;;;;;;;;;;;;2.73;100.00;97456.78;5120619;28;19938;-72
2023/11/23 09:58:04;;;;;;;;;;;;;;;2.80;100.00;97456.06;5104596;28;19970;-73
2023/11/23 10:00:33;;;;;;;;;;;;;;;2.82;100.00;97459.31;5103849;28;20123;-74
2023/11/23 10:02:59;;;;;;;;;;;;;;;2.89;100.00;97454.38;5103807;28;20133;-74
2023/11/23 10:05:26;;;;;;;;;;;;;;;2.90;100.00;97444.81;5119678;28;19977;-73
2023/11/23 10:07:54;;;;;;;;;;;;;;;2.94;100.00;97435.81;5120476;28;19942;-74
2023/11/23 10:10:20;;;;;;;;;;;;;;;3.22;100.00;97427.03;5119649;28;19946;-73
2023/11/23 10:12:46;;;;;;;;;;;;;;;3.53;100.00;97421.50;5104606;28;19967;-73
2023/11/23 10:15:12;;;;;;;;;;;;;;;3.69;100.00;97423.41;5120218;28;19941;-74
2023/11/23 10:17:39;;;;;;;;;;;;;;;3.69;100.00;97417.41;5103315;28;19952;-73
2023/11/23 10:20:06;;;;;;;;;;;;;;;3.61;100.00;97415.53;5085662;28;19947;-73
2023/11/23 10:22:32;;;;;;;;;;;;;;;3.54;100.00;97417.91;5085612;28;19944;-73
2023/11/23 10:24:59;;;;;;;;;;;;;;;3.51;100.00;97404.44;5122492;28;19946;-73
2023/11/23 10:27:24;;;;;;;;;;;;;;;3.51;100.00;97402.69;5107734;28;19936;-72
2023/11/23 10:29:50;;;;;;;;;;;;;;;3.53;100.00;97390.38;5107175;28;20111;-75
2023/11/23 10:32:16;;;;;;;;;;;;;;;3.57;100.00;97393.47;5106094;28;19940;-74
2023/11/23 10:34:42;;;;;;;;;;;;;;;3.62;100.00;97389.47;5107408;28;19934;-74
2023/11/23 10:37:13;;;;;;;;;;;;;;;3.68;100.00;97389.84;5123569;28;20130;-74
2023/11/23 10:39:39;;;;;;;;;;;;;;;3.74;100.00;97376.25;5107787;28;20134;-74
2023/11/23 10:42:05;;;;;;;;;;;;;;;3.79;100.00;97382.59;5123619;28;20121;-74
2023/11/23 10:44:33;;;;;;;;;;;;;;;3.82;100.00;97377.13;5107050;28;19959;-74
2023/11/23 10:47:03;;;;;;;;;;;;;;;3.86;100.00;97386.25;5107904;28;20299;-77
2023/11/23 10:49:35;;;;;;;;;;;;;;;3.89;100.00;97379.94;5105849;28;19946;-73
2023/11/23 10:52:02;;;;;;;;;;;;;;;3.91;100.00;97380.59;5106963;28;19936;-74
2023/11/23 10:54:28;;;;;;;;;;;;;;;3.93;100.00;97373.47;5106670;28;20102;-74
2023/11/23 10:56:56;;;;;;;;;;;;;;;3.98;100.00;97370.41;5107325;28;19934;-74
2023/11/23 10:59:23;;;;;;;;;;;;;;;4.02;100.00;97372.53;5123524;28;19944;-74
2023/11/23 11:01:51;;;;;;;;;;;;;;;4.06;100.00;97358.28;5123199;28;19948;-73
2023/11/23 11:04:17;;;;;;;;;;;;;;;4.12;100.00;97350.88;5106702;28;20261;-74
2023/11/23 11:06:44;;;;;;;;;;;;;;;4.14;100.00;97349.75;5123399;28;19943;-74
2023/11/23 11:09:13;;;;;;;;;;;;;;;4.18;100.00;97347.63;5106687;28;19941;-73
2023/11/23 11:11:53;;;;;;;;;;;;;;;4.18;100.00;97340.66;5123231;28;19943;-74
2023/11/23 11:14:29;;;;;;;;;;;;;;;4.24;100.00;97334.84;5123221;28;19943;-73
2023/11/23 11:17:02;;;;;;;;;;;;;;;4.29;100.00;97331.78;5123183;28;20124;-73
2023/11/23 11:19:28;;;;;;;;;;;;;;;4.32;100.00;97328.88;5122284;28;19935;-73
2023/11/23 11:21:59;;;;;;;;;;;;;;;4.35;100.00;97331.16;5122248;28;19945;-74
2023/11/23 11:24:25;;;;;;;;;;;;;;;4.36;100.00;97322.38;5106621;28;19968;-71
2023/11/23 11:26:58;;;;;;;;;;;;;;;4.38;100.00;97314.44;5122724;28;20006;-78
2023/11/23 11:29:25;;;;;;;;;;;;;;;4.38;100.00;97310.06;5107011;28;19935;-77
2023/11/23 11:31:52;;;;;;;;;;;;;;;4.45;100.00;97307.66;5106251;28;19944;-77
2023/11/23 11:34:19;;;;;;;;;;;;;;;4.52;100.00;97308.66;5106134;28;19942;-77
2023/11/23 11:36:59;;;;;;;;;;;;;;;4.57;100.00;97295.19;5121964;28;19951;-77
2023/11/23 11:39:39;;;;;;;;;;;;;;;4.59;100.00;97293.25;5121953;28;20025;-77
2023/11/23 11:42:06;;;;;;;;;;;;;;;4.58;100.00;97297.63;5105566;28;19945;-74
2023/11/23 11:44:36;;;;;;;;;;;;;;;4.63;100.00;97291.97;5121764;28;19955;-71
2023/11/23 11:47:03;;;;;;;;;;;;;;;4.65;100.00;97290.00;5105545;28;20216;-72
2023/11/23 11:49:30;;;;;;;;;;;;;;;4.71;100.00;97289.38;5105790;28;20244;-72
2023/11/23 11:51:56;;;;;;;;;;;;;;;4.79;100.00;97298.97;5106349;28;19940;-72
2023/11/23 11:54:23;;;;;;;;;;;;;;;4.87;100.00;97304.16;5105445;28;19938;-71
2023/11/23 11:56:52;;;;;;;;;;;;;;;4.94;100.00;97286.97;5122385;28;20090;-71
2023/11/23 11:59:22;;;;;;;;;;;;;;;4.96;100.00;97282.44;5106023;28;19955;-73
2023/11/23 12:01:48;;;;;;;;;;;;;;;4.99;100.00;97283.88;5105911;28;20015;-73
2023/11/23 12:04:16;;;;;;;;;;;;;;;5.02;100.00;97288.78;5105574;28;20227;-75
2023/11/23 12:06:44;;;;;;;;;;;;;;;5.05;100.00;97284.03;5105584;28;19940;-74
2023/11/23 12:09:14;;;;;;;;;;;;;;;5.07;100.00;97282.09;5105470;28;19944;-74
2023/11/23 12:11:43;;;;;;;;;;;;;;;5.10;100.00;97280.94;5105459;28;19936;-74
2023/11/23 12:14:09;;;;;;;;;;;;;;;5.16;100.00;97274.28;5105324;28;19932;-74
2023/11/23 12:16:35;;;;;;;;;;;;;;;5.22;100.00;97271.03;5105361;28;19944;-75
2023/11/23 12:19:01;;;;;;;;;;;;;;;5.27;100.00;97259.19;5106005;28;19958;-74
2023/11/23 12:21:28;;;;;;;;;;;;;;;5.34;100.00;97248.13;5121086;28;19939;-73
2023/11/23 12:23:55;;;;;;;;;;;;;;;5.34;100.00;97235.94;5105940;28;19954;-74
2023/11/23 12:26:20;;;;;;;;;;;;;;;5.36;100.00;97228.78;5087027;28;19947;-73
2023/11/23 12:28:47;;;;;;;;;;;;;;;5.42;100.00;97216.91;5087797;28;19948;-73
2023/11/23 12:31:13;;;;;;;;;;;;;;;5.52;100.00;97220.09;5120895;28;19946;-73
2023/11/23 12:33:38;;;;;;;;;;;;;;;5.67;100.00;97220.25;5121680;28;19941;-74
2023/11/23 12:36:05;;;;;;;;;;;;;;;5.77;100.00;97202.63;5120846;28;19951;-85
2023/11/23 12:38:31;;;;;;;;;;;;;;;5.86;100.00;97206.03;5120786;28;19989;-72
2023/11/23 12:40:56;;;;;;;;;;;;;;;5.97;100.00;97194.47;5104846;28;19936;-72